Time;durP1;ratioP1;P1;durP2;ratioP2;P2;SDS_P1;SDS_P2;PMS_P1;PMS_P2;Temp;Humidity;BMP_temperature;BMP_pressure;BME280_temperature;BME280_humidity;BME280_pressure;Samples;Min_cycle;Max_cycle;Signal;HPM_P1;HPM_P2
2023/03/25 00:00:56;;;;;;;14.98;3.08;;;10.10;99.90;;;;;;5022587;28;20412;-90
2023/03/25 00:03:29;;;;;;;11.88;2.78;;;10.10;99.90;;;;;;5002836;28;20084;-90
2023/03/25 00:05:56;;;;;;;13.57;2.90;;;10.10;99.90;;;;;;5018686;28;20045;-90
2023/03/25 00:08:24;;;;;;;13.20;2.25;;;10.10;99.90;;;;;;5006250;28;20045;-90
2023/03/25 00:10:57;;;;;;;8.65;2.17;;;10.10;99.90;;;;;;5029772;28;20400;-90
2023/03/25 00:13:23;;;;;;;13.88;2.80;;;10.10;99.90;;;;;;5005147;28;20167;-90
2023/03/25 00:15:56;;;;;;;12.13;2.22;;;10.20;99.90;;;;;;5005321;28;20123;-90
2023/03/25 00:18:24;;;;;;;14.73;2.53;;;10.10;99.90;;;;;;5005322;28;20029;-89
2023/03/25 00:20:51;;;;;;;12.73;2.80;;;10.10;99.90;;;;;;5003580;28;20049;-90
2023/03/25 00:23:18;;;;;;;11.38;2.97;;;10.20;99.90;;;;;;5022589;28;20506;-89
2023/03/25 00:25:44;;;;;;;11.38;2.70;;;10.20;99.90;;;;;;5021452;28;20540;-89
2023/03/25 00:28:12;;;;;;;10.57;3.08;;;10.20;99.90;;;;;;5023516;28;20087;-90
2023/03/25 00:30:38;;;;;;;12.30;2.50;;;10.10;99.90;;;;;;5007591;28;20044;-89
2023/03/25 00:33:04;;;;;;;13.93;3.45;;;10.10;99.90;;;;;;5047867;28;20037;-90
2023/03/25 00:35:31;;;;;;;16.48;3.03;;;10.10;99.90;;;;;;5018498;28;20150;-89
2023/03/25 00:38:03;;;;;;;13.93;2.85;;;10.00;99.90;;;;;;5005791;28;20569;-90
2023/03/25 00:40:34;;;;;;;11.15;2.95;;;10.00;99.90;;;;;;5004978;28;20049;-90
2023/03/25 00:43:01;;;;;;;10.60;3.20;;;10.00;99.90;;;;;;5004630;28;20128;-90
2023/03/25 00:45:27;;;;;;;16.75;3.33;;;10.00;99.90;;;;;;5019412;28;20040;-90
2023/03/25 00:47:54;;;;;;;11.85;2.60;;;10.00;99.90;;;;;;5004733;28;20068;-90
2023/03/25 00:50:23;;;;;;;14.18;2.92;;;10.00;99.90;;;;;;5018263;28;20081;-89
2023/03/25 00:52:50;;;;;;;15.30;2.88;;;10.00;99.90;;;;;;5005186;28;20414;-90
2023/03/25 00:55:16;;;;;;;14.65;2.83;;;9.90;99.90;;;;;;5017612;28;20128;-90
2023/03/25 00:57:42;;;;;;;8.70;2.30;;;9.80;99.90;;;;;;5005679;28;20219;-89
2023/03/25 01:00:11;;;;;;;12.05;2.47;;;9.60;99.90;;;;;;5017545;28;20063;-89
2023/03/25 01:02:39;;;;;;;13.68;2.85;;;9.60;99.90;;;;;;5004277;28;20029;-90
2023/03/25 01:05:06;;;;;;;12.40;2.55;;;9.50;99.90;;;;;;5025527;28;20034;-89
2023/03/25 01:07:31;;;;;;;11.60;2.67;;;9.40;99.90;;;;;;5021270;28;20450;-89
2023/03/25 01:09:58;;;;;;;12.80;3.05;;;9.40;99.90;;;;;;5005547;28;20095;-89
2023/03/25 01:12:25;;;;;;;13.50;2.80;;;9.40;99.90;;;;;;5019467;28;20124;-90
2023/03/25 01:14:51;;;;;;;12.25;3.00;;;9.40;99.90;;;;;;5005275;28;20051;-90
2023/03/25 01:17:17;;;;;;;11.85;3.20;;;9.30;99.90;;;;;;5002987;28;20061;-90
2023/03/25 01:19:43;;;;;;;11.25;2.80;;;9.30;99.90;;;;;;5027610;28;20072;-89
2023/03/25 01:22:11;;;;;;;14.25;3.03;;;9.30;99.90;;;;;;5003877;28;20065;-90
2023/03/25 01:24:37;;;;;;;13.00;2.92;;;9.30;99.90;;;;;;5020195;28;20041;-90
2023/03/25 01:27:03;;;;;;;15.05;2.97;;;9.30;99.90;;;;;;5020052;28;20033;-90
2023/03/25 01:29:32;;;;;;;12.25;2.58;;;9.30;99.90;;;;;;5001885;28;20049;-90
2023/03/25 01:31:58;;;;;;;15.43;3.20;;;9.20;99.90;;;;;;5003986;28;20056;-90
2023/03/25 01:34:24;;;;;;;16.98;3.80;;;9.30;99.90;;;;;;5002025;28;20041;-91
2023/03/25 01:36:49;;;;;;;12.48;2.97;;;9.30;99.90;;;;;;5003271;28;20142;-90
2023/03/25 01:39:17;;;;;;;15.05;2.90;;;9.30;99.90;;;;;;5003613;28;20095;-90
2023/03/25 01:41:47;;;;;;;16.23;3.22;;;9.30;99.90;;;;;;5023399;28;20064;-90
2023/03/25 01:44:13;;;;;;;17.25;3.63;;;9.20;99.90;;;;;;5002969;28;20109;-90
2023/03/25 01:46:43;;;;;;;16.02;3.63;;;9.20;99.90;;;;;;5006175;28;20589;-90
2023/03/25 01:49:13;;;;;;;9.68;3.15;;;9.20;99.90;;;;;;5003917;28;20072;-90
2023/03/25 01:51:41;;;;;;;14.60;3.25;;;9.30;99.90;;;;;;5002703;28;20387;-91
2023/03/25 01:54:07;;;;;;;13.20;2.97;;;9.30;99.90;;;;;;5022998;28;20048;-89
2023/03/25 01:56:38;;;;;;;15.70;3.88;;;9.30;99.90;;;;;;5004993;28;20045;-90
2023/03/25 01:59:07;;;;;;;13.65;2.65;;;9.30;99.90;;;;;;5018713;28;20109;-90
2023/03/25 02:01:35;;;;;;;16.23;3.50;;;9.30;99.90;;;;;;5017968;28;20037;-89
2023/03/25 02:04:08;;;;;;;14.23;3.47;;;9.30;99.90;;;;;;5017805;28;20076;-90
2023/03/25 02:06:51;;;;;;;15.95;3.28;;;9.30;99.90;;;;;;5017739;28;20133;-89
2023/03/25 02:09:24;;;;;;;16.58;3.40;;;9.30;99.90;;;;;;5019525;28;20249;-90
2023/03/25 02:11:53;;;;;;;23.35;3.88;;;9.30;99.90;;;;;;5001137;28;20045;-90
2023/03/25 02:14:23;;;;;;;16.92;3.30;;;9.30;99.90;;;;;;5001601;28;20065;-90
2023/03/25 02:17:17;;;;;;;18.17;3.80;;;9.30;99.90;;;;;;5001945;28;20033;-89
2023/03/25 02:20:08;;;;;;;12.82;3.10;;;9.30;99.90;;;;;;5017451;28;20440;-90
2023/03/25 02:22:46;;;;;;;18.20;3.50;;;9.30;99.90;;;;;;5002954;28;20103;-90
2023/03/25 02:25:38;;;;;;;18.85;3.67;;;9.30;99.90;;;;;;5019984;28;20037;-89
2023/03/25 02:28:28;;;;;;;23.38;4.25;;;9.30;99.90;;;;;;5005556;28;20091;-90
2023/03/25 02:31:24;;;;;;;20.05;3.58;;;9.30;99.90;;;;;;5000188;28;20404;-90
2023/03/25 02:34:28;;;;;;;19.13;3.83;;;9.30;99.90;;;;;;5019283;28;20040;-89
2023/03/25 02:37:00;;;;;;;19.40;3.22;;;9.30;99.90;;;;;;5000285;28;20624;-90
2023/03/25 02:39:42;;;;;;;21.00;3.53;;;9.30;99.90;;;;;;5006062;28;20049;-90
2023/03/25 02:42:29;;;;;;;16.38;4.47;;;9.30;99.90;;;;;;5020287;28;20082;-90
2023/03/25 02:44:57;;;;;;;19.73;4.63;;;9.30;99.90;;;;;;5004176;28;20032;-90
2023/03/25 02:47:26;;;;;;;16.90;3.50;;;9.30;99.90;;;;;;5020091;28;20336;-90
2023/03/25 02:50:00;;;;;;;18.63;4.13;;;9.30;99.90;;;;;;5022142;28;20037;-90
2023/03/25 02:52:40;;;;;;;22.25;4.38;;;9.30;99.90;;;;;;5005358;28;20091;-90
2023/03/25 02:55:11;;;;;;;16.90;3.60;;;9.30;99.90;;;;;;5003781;28;20040;-89
2023/03/25 02:57:49;;;;;;;20.10;3.38;;;9.30;99.90;;;;;;5024891;28;20046;-90
2023/03/25 03:00:19;;;;;;;16.17;3.30;;;9.30;99.90;;;;;;5000189;28;20056;-90
2023/03/25 03:03:05;;;;;;;17.48;3.70;;;9.30;99.90;;;;;;5043064;28;20037;-90
2023/03/25 03:05:32;;;;;;;15.77;3.35;;;9.20;99.90;;;;;;4999926;28;20561;-90
2023/03/25 03:08:03;;;;;;;15.43;3.38;;;9.30;99.90;;;;;;5042578;28;20041;-89
2023/03/25 03:10:45;;;;;;;18.40;3.47;;;9.20;99.90;;;;;;5020865;28;20132;-90
2023/03/25 03:13:40;;;;;;;21.90;3.83;;;9.30;99.90;;;;;;5002811;28;20080;-90
2023/03/25 03:16:24;;;;;;;18.13;3.53;;;9.30;99.90;;;;;;5004411;28;20051;-90
2023/03/25 03:19:01;;;;;;;21.90;4.00;;;9.20;99.90;;;;;;5019008;28;20068;-90
2023/03/25 03:21:42;;;;;;;28.55;4.38;;;9.20;99.90;;;;;;5028769;28;20043;-90
2023/03/25 03:24:15;;;;;;;20.88;4.10;;;9.20;99.90;;;;;;5035077;28;20045;-89
2023/03/25 03:26:44;;;;;;;16.35;4.03;;;9.20;99.90;;;;;;5008583;28;20072;-90
2023/03/25 03:29:18;;;;;;;19.80;4.05;;;9.20;99.90;;;;;;5024259;28;20513;-90
2023/03/25 03:31:49;;;;;;;20.77;3.63;;;9.10;99.90;;;;;;5007217;28;20056;-89
2023/03/25 03:34:33;;;;;;;22.90;4.00;;;9.20;99.90;;;;;;5018775;28;20118;-90
2023/03/25 03:37:01;;;;;;;15.35;4.10;;;9.20;99.90;;;;;;5006614;28;20942;-89
2023/03/25 03:39:37;;;;;;;21.65;4.38;;;9.10;99.90;;;;;;5004665;28;20609;-90
2023/03/25 03:42:25;;;;;;;17.33;3.83;;;9.20;99.90;;;;;;5024995;28;20076;-90
2023/03/25 03:45:02;;;;;;;17.52;3.90;;;9.20;99.90;;;;;;5039206;28;20303;-90
2023/03/25 03:47:35;;;;;;;21.13;4.30;;;9.10;99.90;;;;;;5002866;28;20656;-89
2023/03/25 03:50:10;;;;;;;19.95;3.95;;;9.10;99.90;;;;;;5002903;28;20501;-89
2023/03/25 03:52:41;;;;;;;17.67;3.80;;;9.10;99.90;;;;;;5010062;28;20075;-89
2023/03/25 03:55:12;;;;;;;15.95;3.78;;;9.10;99.90;;;;;;5028546;28;20037;-90
2023/03/25 03:57:50;;;;;;;19.85;3.80;;;9.10;99.90;;;;;;5005720;28;20568;-90
2023/03/25 04:00:30;;;;;;;19.25;4.25;;;9.10;99.90;;;;;;5026364;28;20037;-89
2023/03/25 04:03:27;;;;;;;16.02;3.38;;;9.20;99.90;;;;;;5040272;28;20029;-90
2023/03/25 04:06:05;;;;;;;23.95;4.75;;;9.20;99.90;;;;;;5006689;28;20116;-89
2023/03/25 04:08:36;;;;;;;19.05;3.83;;;9.20;99.90;;;;;;5006110;28;20128;-90
2023/03/25 04:11:08;;;;;;;18.30;4.35;;;9.20;99.90;;;;;;5023963;28;20117;-90
2023/03/25 04:13:38;;;;;;;20.15;4.22;;;9.10;99.90;;;;;;5032756;28;20073;-90
2023/03/25 04:16:04;;;;;;;15.55;3.90;;;9.10;99.90;;;;;;5002627;28;20519;-90
2023/03/25 04:18:32;;;;;;;15.57;3.78;;;9.10;99.90;;;;;;5019735;28;20038;-90
2023/03/25 04:20:59;;;;;;;15.88;3.42;;;9.10;99.90;;;;;;5017528;28;20045;-89
2023/03/25 04:23:28;;;;;;;21.02;4.25;;;9.10;99.90;;;;;;5002853;28;20049;-89
2023/03/25 04:25:55;;;;;;;19.90;4.25;;;9.10;99.90;;;;;;5005616;28;20339;-90
2023/03/25 04:28:22;;;;;;;16.48;3.80;;;9.20;99.90;;;;;;5004433;28;20979;-89
2023/03/25 04:30:54;;;;;;;19.23;3.90;;;9.10;99.90;;;;;;5001780;28;20893;-90
2023/03/25 04:33:24;;;;;;;20.60;5.30;;;9.10;99.90;;;;;;5020324;28;20045;-90
2023/03/25 04:35:50;;;;;;;24.15;4.63;;;9.10;99.90;;;;;;5003494;28;20064;-90
2023/03/25 04:38:18;;;;;;;14.38;4.40;;;9.10;99.90;;;;;;5003883;28;20135;-89
2023/03/25 04:40:48;;;;;;;20.98;4.82;;;9.10;99.90;;;;;;5008296;28;20124;-90
2023/03/25 04:43:16;;;;;;;19.70;4.63;;;9.10;99.90;;;;;;5004871;28;20041;-90
2023/03/25 04:45:47;;;;;;;18.33;4.55;;;9.00;99.90;;;;;;5004736;28;20040;-90
2023/03/25 04:48:29;;;;;;;16.45;4.18;;;9.00;99.90;;;;;;5020049;28;20535;-90
2023/03/25 04:50:57;;;;;;;19.90;4.53;;;9.00;99.90;;;;;;5005261;28;20049;-90
2023/03/25 04:53:24;;;;;;;16.83;4.53;;;9.00;99.90;;;;;;5008468;28;20037;-90
2023/03/25 04:55:50;;;;;;;17.25;4.93;;;9.00;99.90;;;;;;5004601;28;20147;-90
2023/03/25 04:58:16;;;;;;;19.58;4.40;;;9.00;99.90;;;;;;5005015;28;20158;-91
2023/03/25 05:00:47;;;;;;;13.25;3.58;;;9.10;99.90;;;;;;5005890;28;20033;-90
2023/03/25 05:03:14;;;;;;;22.17;4.35;;;9.00;99.90;;;;;;5005522;28;20042;-90
2023/03/25 05:05:40;;;;;;;16.60;4.20;;;9.10;99.90;;;;;;5015140;28;20049;-90
2023/03/25 05:08:06;;;;;;;15.30;4.57;;;9.00;99.90;;;;;;5021122;28;20473;-90
2023/03/25 05:10:34;;;;;;;19.00;5.07;;;9.00;99.90;;;;;;5022017;28;20089;-90
2023/03/25 05:13:05;;;;;;;16.77;4.55;;;9.00;99.90;;;;;;5003329;28;20037;-89
2023/03/25 05:15:38;;;;;;;17.67;4.53;;;9.10;99.90;;;;;;5019139;28;20072;-90
2023/03/25 05:18:10;;;;;;;24.33;4.93;;;9.00;99.90;;;;;;5003540;28;20034;-90
2023/03/25 05:20:38;;;;;;;14.15;4.60;;;9.10;99.90;;;;;;5001810;28;20387;-89
2023/03/25 05:23:15;;;;;;;23.13;4.88;;;9.00;99.90;;;;;;5022371;28;20116;-89
2023/03/25 05:25:41;;;;;;;17.80;4.07;;;9.10;99.90;;;;;;5003036;28;20119;-89
2023/03/25 05:28:12;;;;;;;19.08;4.90;;;9.10;99.90;;;;;;5017383;28;20435;-90
2023/03/25 05:30:40;;;;;;;19.73;5.00;;;9.10;99.90;;;;;;5006837;28;20049;-90
2023/03/25 05:33:09;;;;;;;22.83;5.00;;;9.10;99.90;;;;;;5042720;28;20079;-90
2023/03/25 05:35:38;;;;;;;17.60;4.05;;;9.10;99.90;;;;;;5015644;28;20200;-90
2023/03/25 05:38:06;;;;;;;15.88;3.55;;;9.10;99.90;;;;;;4999364;28;20395;-89
2023/03/25 05:40:33;;;;;;;19.23;4.07;;;9.10;99.90;;;;;;5018735;28;20158;-90
2023/03/25 05:42:59;;;;;;;20.92;4.28;;;9.10;99.90;;;;;;5003472;28;20037;-89
2023/03/25 05:45:24;;;;;;;22.75;4.35;;;9.10;99.90;;;;;;5019424;28;20048;-89
2023/03/25 05:47:51;;;;;;;18.23;4.38;;;9.10;99.90;;;;;;5019584;28;20132;-90
2023/03/25 05:50:20;;;;;;;21.10;4.05;;;9.10;99.90;;;;;;5034995;28;20116;-90
2023/03/25 05:52:48;;;;;;;19.80;4.15;;;9.20;99.90;;;;;;5018443;28;20049;-90
2023/03/25 05:55:19;;;;;;;19.75;3.97;;;9.20;99.90;;;;;;5002560;28;20055;-90
2023/03/25 05:57:45;;;;;;;18.85;4.43;;;9.20;99.90;;;;;;5018506;28;20638;-90
2023/03/25 06:00:12;;;;;;;17.50;4.22;;;9.20;99.90;;;;;;5021853;28;20057;-90
2023/03/25 06:02:38;;;;;;;20.98;4.15;;;9.20;99.90;;;;;;5029537;28;20080;-90
2023/03/25 06:05:08;;;;;;;24.50;5.15;;;9.20;99.90;;;;;;5003574;28;20083;-90
2023/03/25 06:07:38;;;;;;;21.48;3.97;;;9.20;99.90;;;;;;5002036;28;20148;-90
2023/03/25 06:10:05;;;;;;;24.45;5.20;;;9.20;99.90;;;;;;5018924;28;20038;-90
2023/03/25 06:12:37;;;;;;;22.67;4.43;;;9.20;99.90;;;;;;5006929;28;20029;-90
2023/03/25 06:15:06;;;;;;;25.52;4.57;;;9.20;99.90;;;;;;5004727;28;20516;-90
2023/03/25 06:17:32;;;;;;;23.65;4.97;;;9.20;99.90;;;;;;5003713;28;20044;-90
2023/03/25 06:19:59;;;;;;;20.88;4.32;;;9.30;99.90;;;;;;5017706;28;20045;-90
2023/03/25 06:22:25;;;;;;;17.00;3.55;;;9.30;99.90;;;;;;5000687;28;20037;-90
2023/03/25 06:24:51;;;;;;;22.90;4.32;;;9.30;99.90;;;;;;5003224;28;20121;-90
2023/03/25 06:27:18;;;;;;;25.10;4.45;;;9.30;99.90;;;;;;5030628;28;20075;-90
2023/03/25 06:29:46;;;;;;;19.60;3.90;;;9.30;99.90;;;;;;5025286;28;20033;-89
2023/03/25 06:32:13;;;;;;;18.60;3.97;;;9.30;99.90;;;;;;5015671;28;20406;-90
2023/03/25 06:34:58;;;;;;;21.02;4.80;;;9.30;99.90;;;;;;5018291;28;20124;-90
2023/03/25 06:37:25;;;;;;;25.80;4.88;;;9.20;99.90;;;;;;4999365;28;20108;-90
2023/03/25 06:39:55;;;;;;;16.77;3.45;;;9.20;99.90;;;;;;5003212;28;20490;-90
2023/03/25 06:42:27;;;;;;;21.77;3.95;;;9.10;99.90;;;;;;5017160;28;20057;-89
2023/03/25 06:44:53;;;;;;;18.70;3.60;;;9.20;99.90;;;;;;5020830;28;20542;-90
2023/03/25 06:47:19;;;;;;;19.88;4.03;;;9.20;99.90;;;;;;5020769;28;20562;-90
2023/03/25 06:49:45;;;;;;;20.10;4.05;;;9.10;99.90;;;;;;5020302;28;20037;-90
2023/03/25 06:52:11;;;;;;;24.73;4.40;;;9.10;99.90;;;;;;5030091;28;20228;-90
2023/03/25 06:54:37;;;;;;;19.00;3.83;;;9.10;99.90;;;;;;5040151;28;20041;-90
2023/03/25 06:57:03;;;;;;;18.30;3.75;;;9.10;99.90;;;;;;5017463;28;20041;-89
2023/03/25 06:59:29;;;;;;;22.42;4.13;;;9.20;99.90;;;;;;5018866;28;20049;-89
2023/03/25 07:01:54;;;;;;;19.77;5.88;;;9.20;99.90;;;;;;5006430;28;20065;-90
2023/03/25 07:04:20;;;;;;;16.58;3.47;;;9.20;99.90;;;;;;5018655;28;20091;-90
2023/03/25 07:06:46;;;;;;;18.27;3.60;;;9.20;99.90;;;;;;4998458;28;20038;-90
2023/03/25 07:09:12;;;;;;;18.02;3.78;;;9.20;99.90;;;;;;5003044;28;20664;-90
2023/03/25 07:11:38;;;;;;;14.07;3.60;;;9.40;99.90;;;;;;5005425;28;20591;-90
2023/03/25 07:14:04;;;;;;;22.05;4.18;;;9.40;99.90;;;;;;5006784;28;20041;-89
2023/03/25 07:16:30;;;;;;;16.15;3.83;;;9.60;99.90;;;;;;5001533;28;20514;-89
2023/03/25 07:18:59;;;;;;;15.75;4.00;;;9.80;99.90;;;;;;5001958;28;20148;-90
2023/03/25 07:21:25;;;;;;;18.33;3.72;;;10.00;99.90;;;;;;5005295;28;20182;-90
2023/03/25 07:23:51;;;;;;;18.67;3.38;;;10.00;99.90;;;;;;5004213;28;20080;-90
2023/03/25 07:26:19;;;;;;;14.48;3.28;;;9.80;99.90;;;;;;5022228;28;20735;-90
2023/03/25 07:28:46;;;;;;;21.80;3.50;;;9.70;99.90;;;;;;5022081;28;20133;-89
2023/03/25 07:31:17;;;;;;;15.02;3.55;;;9.60;99.90;;;;;;5017772;28;20402;-90
2023/03/25 07:33:43;;;;;;;19.10;4.15;;;9.70;99.90;;;;;;5003050;28;20502;-90
2023/03/25 07:36:11;;;;;;;19.70;3.85;;;9.70;99.90;;;;;;5014761;28;20049;-89
2023/03/25 07:38:37;;;;;;;17.60;3.38;;;9.70;99.90;;;;;;5018080;28;20652;-90
2023/03/25 07:41:08;;;;;;;20.42;3.22;;;9.80;99.90;;;;;;5039027;28;20109;-90
2023/03/25 07:43:34;;;;;;;18.85;3.20;;;9.70;99.90;;;;;;5004560;28;20083;-90
2023/03/25 07:45:59;;;;;;;14.13;3.83;;;9.60;99.90;;;;;;5019222;28;20057;-90
2023/03/25 07:48:29;;;;;;;18.25;3.55;;;9.40;99.90;;;;;;5023254;28;20069;-90
2023/03/25 07:50:55;;;;;;;19.92;3.70;;;9.40;99.90;;;;;;4999794;28;20042;-90
2023/03/25 07:53:21;;;;;;;17.05;3.47;;;9.20;99.90;;;;;;5000296;28;20044;-90
2023/03/25 07:55:49;;;;;;;20.98;3.45;;;9.10;99.90;;;;;;5001642;28;20449;-89
2023/03/25 07:58:16;;;;;;;19.35;4.40;;;9.20;99.90;;;;;;5017780;28;20147;-90
2023/03/25 08:00:42;;;;;;;19.48;4.05;;;9.20;99.90;;;;;;5003734;28;20029;-90
2023/03/25 08:03:10;;;;;;;12.73;3.50;;;9.20;99.90;;;;;;5002929;28;20064;-90
2023/03/25 08:05:36;;;;;;;15.95;4.57;;;9.20;99.90;;;;;;5000158;28;20038;-90
2023/03/25 08:08:04;;;;;;;19.45;4.20;;;9.20;99.90;;;;;;5005332;28;20037;-90
2023/03/25 08:10:30;;;;;;;14.20;3.63;;;9.00;99.90;;;;;;5025315;28;20476;-91
2023/03/25 08:12:56;;;;;;;17.48;5.30;;;9.00;99.90;;;;;;5007427;28;20040;-90
2023/03/25 08:15:25;;;;;;;18.73;4.53;;;9.10;99.90;;;;;;5021039;28;20063;-89
2023/03/25 08:17:51;;;;;;;18.55;4.88;;;9.10;99.90;;;;;;5028236;28;20047;-90
2023/03/25 08:20:17;;;;;;;16.33;4.97;;;9.10;99.90;;;;;;5004131;28;20033;-90
2023/03/25 08:22:46;;;;;;;17.58;4.30;;;9.00;99.90;;;;;;5017674;28;20038;-90
2023/03/25 08:25:15;;;;;;;14.13;4.00;;;9.00;99.90;;;;;;5006880;28;20052;-91
2023/03/25 08:27:40;;;;;;;17.23;3.67;;;9.10;99.90;;;;;;5023255;28;20037;-90
2023/03/25 08:30:09;;;;;;;13.30;3.78;;;9.10;99.90;;;;;;5006421;28;20034;-90
2023/03/25 08:32:37;;;;;;;16.45;4.63;;;9.00;99.90;;;;;;5001567;28;20041;-90
2023/03/25 08:35:04;;;;;;;16.15;4.70;;;9.10;99.90;;;;;;5018789;28;20431;-89
2023/03/25 08:37:34;;;;;;;18.52;4.00;;;9.20;99.90;;;;;;5018689;28;20053;-90
2023/03/25 08:40:00;;;;;;;25.95;4.88;;;9.30;99.90;;;;;;5019895;28;20072;-89
2023/03/25 08:42:26;;;;;;;16.00;3.75;;;9.30;99.90;;;;;;5020451;28;20524;-90
2023/03/25 08:44:52;;;;;;;18.70;3.67;;;9.40;99.90;;;;;;5002868;28;20144;-90
2023/03/25 08:47:17;;;;;;;18.30;3.83;;;9.50;99.90;;;;;;5002439;28;20041;-91
2023/03/25 08:49:43;;;;;;;17.83;3.50;;;9.40;99.90;;;;;;5003698;28;20033;-91
2023/03/25 08:52:09;;;;;;;20.38;4.18;;;9.50;99.90;;;;;;5001383;28;20555;-91
2023/03/25 08:54:35;;;;;;;17.25;4.20;;;9.30;99.90;;;;;;5049864;28;20041;-91
2023/03/25 08:57:01;;;;;;;23.73;5.80;;;9.40;99.90;;;;;;5005069;28;20056;-90
2023/03/25 08:59:27;;;;;;;18.45;4.13;;;9.60;99.90;;;;;;5020795;28;20430;-89
2023/03/25 09:01:53;;;;;;;23.90;5.13;;;9.70;99.90;;;;;;5005245;28;20033;-90
2023/03/25 09:04:18;;;;;;;17.55;4.10;;;9.70;99.90;;;;;;5003124;28;20124;-90
2023/03/25 09:06:44;;;;;;;17.08;3.97;;;9.90;99.90;;;;;;5002047;28;20037;-90
2023/03/25 09:09:10;;;;;;;21.48;4.63;;;10.00;99.90;;;;;;5005489;28;20103;-89
2023/03/25 09:11:37;;;;;;;19.75;4.35;;;10.00;99.90;;;;;;5027666;28;20150;-90
2023/03/25 09:14:03;;;;;;;20.00;4.50;;;10.20;99.90;;;;;;5003705;28;20041;-90
2023/03/25 09:16:30;;;;;;;19.58;4.07;;;10.20;99.90;;;;;;5022544;28;20043;-90
2023/03/25 09:18:56;;;;;;;14.15;3.65;;;10.50;99.90;;;;;;5019493;28;20045;-90
2023/03/25 09:21:22;;;;;;;22.17;4.85;;;10.30;99.90;;;;;;5003203;28;20410;-90
2023/03/25 09:23:47;;;;;;;17.52;4.00;;;10.40;99.90;;;;;;5036566;28;20581;-91
2023/03/25 09:26:15;;;;;;;15.75;3.30;;;10.40;99.90;;;;;;5024695;28;20049;-90
2023/03/25 09:28:41;;;;;;;15.70;3.85;;;10.50;99.90;;;;;;5038422;28;20652;-89
2023/03/25 09:31:08;;;;;;;10.80;3.38;;;10.60;99.90;;;;;;5018352;28;20292;-90
2023/03/25 09:33:36;;;;;;;16.40;3.65;;;10.50;99.90;;;;;;5002161;28;20267;-90
2023/03/25 09:36:03;;;;;;;16.25;3.33;;;10.50;99.90;;;;;;5002873;28;20054;-90
2023/03/25 09:38:29;;;;;;;17.15;4.18;;;10.50;99.90;;;;;;5003504;28;20163;-89
2023/03/25 09:40:55;;;;;;;14.70;3.20;;;10.50;99.90;;;;;;5025900;28;20041;-89
2023/03/25 09:43:53;;;;;;;18.40;3.63;;;10.40;99.90;;;;;;5005565;28;20045;-89
2023/03/25 09:46:22;;;;;;;15.90;4.03;;;10.40;99.90;;;;;;5003210;28;20310;-90
2023/03/25 09:48:49;;;;;;;15.05;3.22;;;10.50;99.90;;;;;;5006299;28;20116;-90
2023/03/25 09:51:19;;;;;;;16.35;3.60;;;10.50;99.90;;;;;;5018306;28;20049;-88
2023/03/25 09:54:00;;;;;;;12.82;3.05;;;10.50;99.90;;;;;;5021342;28;20609;-90
2023/03/25 09:56:28;;;;;;;11.80;2.80;;;10.40;99.90;;;;;;5028616;28;20049;-89
2023/03/25 09:59:06;;;;;;;17.20;2.90;;;10.30;99.90;;;;;;5002515;28;20101;-91
2023/03/25 10:01:58;;;;;;;13.57;3.10;;;10.10;99.90;;;;;;5005682;28;20049;-90
2023/03/25 10:04:52;;;;;;;16.83;2.90;;;10.00;99.90;;;;;;5018097;28;20048;-90
2023/03/25 10:07:18;;;;;;;14.90;3.35;;;10.30;99.90;;;;;;5043934;28;20036;-90
2023/03/25 10:09:59;;;;;;;15.05;2.85;;;10.60;99.90;;;;;;5025007;28;20041;-90
2023/03/25 10:12:52;;;;;;;11.75;2.97;;;10.60;99.90;;;;;;5002009;28;20045;-89
2023/03/25 10:15:50;;;;;;;18.00;3.25;;;10.40;99.90;;;;;;5007024;28;20045;-91
2023/03/25 10:18:19;;;;;;;11.57;3.17;;;10.60;99.90;;;;;;5050659;28;20258;-90
2023/03/25 10:20:50;;;;;;;13.68;3.08;;;10.80;99.90;;;;;;5016920;28;20124;-89
2023/03/25 10:23:46;;;;;;;13.75;3.17;;;10.90;99.90;;;;;;5002493;28;20091;-90
2023/03/25 10:26:24;;;;;;;;;;;10.70;99.90;;;;;;5017737;28;20232;-89
2023/03/25 10:29:12;;;;;;;14.35;3.80;;;10.80;99.90;;;;;;5015628;28;20391;-90
2023/03/25 10:31:45;;;;;;;16.25;2.90;;;10.60;99.90;;;;;;5005667;28;20145;-89
2023/03/25 10:34:17;;;;;;;18.33;3.10;;;10.50;99.90;;;;;;4999784;28;20045;-90
2023/03/25 10:36:54;;;;;;;14.27;3.13;;;10.40;99.90;;;;;;5026893;28;20110;-90
2023/03/25 10:39:32;;;;;;;16.60;3.90;;;10.40;99.90;;;;;;5016265;28;20053;-90
2023/03/25 10:42:03;;;;;;;13.68;2.50;;;10.40;99.90;;;;;;5022501;28;20028;-90
2023/03/25 10:44:29;;;;;;;17.67;3.58;;;10.40;99.90;;;;;;5002659;28;20041;-89
2023/03/25 10:47:02;;;;;;;20.10;3.60;;;10.30;99.90;;;;;;5019810;28;20107;-90
2023/03/25 10:49:30;;;;;;;15.80;2.78;;;10.30;99.90;;;;;;5017150;28;20442;-90
2023/03/25 10:51:58;;;;;;;11.52;2.55;;;10.20;99.90;;;;;;5018540;28;20040;-90
2023/03/25 10:54:30;;;;;;;15.68;3.72;;;10.20;99.90;;;;;;5022324;28;20425;-90
2023/03/25 10:57:01;;;;;;;13.45;2.55;;;10.10;99.90;;;;;;5016915;28;20060;-90
2023/03/25 10:59:30;;;;;;;15.55;2.90;;;10.10;99.90;;;;;;4998937;28;20069;-90
2023/03/25 11:01:57;;;;;;;14.23;3.10;;;10.10;99.90;;;;;;5000191;28;20044;-91
2023/03/25 11:04:36;;;;;;;19.17;4.03;;;10.10;99.90;;;;;;4999903;28;20047;-90
2023/03/25 11:07:06;;;;;;;17.13;3.33;;;10.20;99.90;;;;;;5022794;28;20048;-90
2023/03/25 11:09:35;;;;;;;18.00;3.55;;;10.20;99.90;;;;;;5031556;28;20454;-90
2023/03/25 11:12:05;;;;;;;13.95;3.33;;;10.30;99.90;;;;;;5019457;28;20132;-90
2023/03/25 11:14:36;;;;;;;17.92;3.05;;;10.30;99.90;;;;;;5017460;28;20038;-90
2023/03/25 11:17:08;;;;;;;16.77;3.00;;;10.40;99.90;;;;;;5033805;28;20046;-90
2023/03/25 11:20:00;;;;;;;12.93;3.15;;;10.50;99.90;;;;;;5017188;28;20103;-89
2023/03/25 11:22:29;;;;;;;16.52;2.70;;;10.50;99.90;;;;;;5001862;28;20030;-89
2023/03/25 11:25:05;;;;;;;15.55;2.90;;;10.60;99.90;;;;;;5004867;28;20030;-89
2023/03/25 11:27:42;;;;;;;12.75;4.18;;;10.70;99.90;;;;;;5016614;28;20045;-89
2023/03/25 11:30:18;;;;;;;15.32;3.13;;;10.90;99.90;;;;;;5049831;28;20269;-89
2023/03/25 11:33:06;;;;;;;14.40;2.70;;;11.10;99.90;;;;;;5001009;28;20116;-89
2023/03/25 11:35:37;;;;;;;13.93;2.90;;;11.10;99.90;;;;;;5026939;28;20104;-89
2023/03/25 11:38:14;;;;;;;14.45;3.33;;;11.10;99.90;;;;;;5023368;28;20566;-90
2023/03/25 11:40:51;;;;;;;12.55;2.40;;;11.30;99.90;;;;;;5004234;28;20108;-88
2023/03/25 11:43:21;;;;;;;14.65;2.60;;;11.20;99.90;;;;;;5024811;28;20511;-89
2023/03/25 11:45:48;;;;;;;16.83;2.67;;;11.30;99.90;;;;;;5005535;28;20033;-89
2023/03/25 11:48:20;;;;;;;15.13;2.47;;;11.20;99.90;;;;;;5026900;28;20037;-89
2023/03/25 11:50:56;;;;;;;19.05;3.10;;;11.10;99.90;;;;;;5002595;28;20073;-89
2023/03/25 11:53:25;;;;;;;18.15;2.72;;;11.20;99.90;;;;;;5005418;28;20308;-89
2023/03/25 11:56:01;;;;;;;13.88;2.47;;;11.40;99.90;;;;;;5006859;28;20175;-89
2023/03/25 11:58:30;;;;;;;12.30;2.80;;;11.60;99.90;;;;;;5006719;28;20596;-88
2023/03/25 12:01:03;;;;;;;10.10;2.63;;;11.70;99.90;;;;;;5006731;28;20032;-90
2023/03/25 12:03:31;;;;;;;11.45;2.45;;;12.00;99.90;;;;;;5018998;28;20052;-89
2023/03/25 12:06:03;;;;;;;12.00;3.00;;;11.80;99.90;;;;;;5004244;28;20112;-89
2023/03/25 12:08:41;;;;;;;12.75;3.17;;;11.70;99.90;;;;;;5024662;28;20558;-88
2023/03/25 12:11:20;;;;;;;10.65;2.30;;;11.50;99.90;;;;;;5004862;28;20399;-89
2023/03/25 12:14:18;;;;;;;11.02;2.20;;;11.40;99.90;;;;;;5005546;28;20040;-90
2023/03/25 12:16:53;;;;;;;13.88;2.42;;;11.50;99.90;;;;;;5006433;28;20069;-90
2023/03/25 12:19:28;;;;;;;;;;;11.80;99.90;;;;;;5006476;28;20511;-89
2023/03/25 12:22:09;;;;;;;11.35;2.88;;;12.40;99.90;;;;;;5045152;28;19928;-89
2023/03/25 12:25:19;;;;;;;9.63;2.22;;;12.10;99.90;;;;;;5007322;28;20083;-89
2023/03/25 12:28:31;;;;;;;12.13;2.55;;;11.90;99.90;;;;;;4986785;28;20049;-90
2023/03/25 12:31:22;;;;;;;10.65;2.90;;;11.70;99.90;;;;;;5004044;28;20352;-90
2023/03/25 12:34:18;;;;;;;11.95;2.97;;;11.70;99.90;;;;;;5004942;28;20107;-88
2023/03/25 12:37:10;;;;;;;11.13;2.78;;;11.90;99.90;;;;;;5006685;28;20067;-89
2023/03/25 12:40:05;;;;;;;13.88;2.95;;;11.90;99.90;;;;;;5027262;28;20044;-90
2023/03/25 12:42:54;;;;;;;12.35;3.25;;;11.90;99.90;;;;;;5022828;28;20040;-89
2023/03/25 12:45:22;;;;;;;12.43;2.70;;;11.70;99.90;;;;;;5024927;28;20040;-90
2023/03/25 12:48:05;;;;;;;10.52;2.70;;;11.60;99.90;;;;;;5021095;28;20041;-89
2023/03/25 12:50:43;;;;;;;15.82;3.17;;;11.80;99.90;;;;;;5017094;28;20261;-89
2023/03/25 12:53:27;;;;;;;16.15;2.88;;;11.80;99.90;;;;;;5005444;28;20084;-89
2023/03/25 12:56:13;;;;;;;11.05;2.40;;;11.70;99.90;;;;;;5021557;28;20037;-89
2023/03/25 12:59:02;;;;;;;15.45;2.80;;;11.60;99.90;;;;;;5001536;28;20045;-89
2023/03/25 13:01:46;;;;;;;13.60;3.45;;;11.80;99.90;;;;;;5003786;28;20038;-89
2023/03/25 13:04:27;;;;;;;12.15;2.40;;;12.00;99.90;;;;;;5035021;28;20099;-89
2023/03/25 13:06:58;;;;;;;11.18;2.58;;;12.20;99.90;;;;;;5018629;28;20044;-89